createdAt,value
2023-12-29T00:00:08.011Z,96440.06
2023-12-29T00:02:36.332Z,96440.06
2023-12-29T00:05:05.415Z,96446.84
2023-12-29T00:07:33.964Z,96449.47
2023-12-29T00:10:02.487Z,96448.13
2023-12-29T00:12:30.886Z,96444.47
2023-12-29T00:14:59.346Z,96428.81
2023-12-29T00:17:29.268Z,96430.41
2023-12-29T00:19:57.776Z,96432.00
2023-12-29T00:22:28.844Z,96434.34
2023-12-29T00:24:57.542Z,96433.56
2023-12-29T00:27:25.881Z,96434.03
2023-12-29T00:29:54.249Z,96437.94
2023-12-29T00:32:23.426Z,96433.94
2023-12-29T00:34:53.355Z,96437.03
2023-12-29T00:37:21.908Z,96424.16
2023-12-29T00:39:50.328Z,96428.28
2023-12-29T00:42:18.685Z,96427.97
2023-12-29T00:44:46.933Z,96432.69
2023-12-29T00:47:15.408Z,96422.56
2023-12-29T00:49:43.891Z,96409.78
2023-12-29T00:52:14.023Z,96408.13
2023-12-29T00:54:43.682Z,96423.22
2023-12-29T00:57:12.081Z,96434.19
2023-12-29T00:59:41.246Z,96419.34
2023-12-29T01:02:10.053Z,96389.88
2023-12-29T01:04:40.463Z,96395.56
2023-12-29T01:07:09.032Z,96404.97
2023-12-29T01:09:41.709Z,96421.94
2023-12-29T01:12:10.197Z,96429.00
2023-12-29T01:14:38.471Z,96421.94
2023-12-29T01:17:07.174Z,96427.47
2023-12-29T01:19:36.055Z,96430.63
2023-12-29T01:22:04.642Z,96431.59
2023-12-29T01:24:40.161Z,96438.25
2023-12-29T01:27:15.316Z,96445.75
2023-12-29T01:29:43.760Z,96438.72
2023-12-29T01:32:12.121Z,96436.78
2023-12-29T01:34:40.920Z,96442.72
2023-12-29T01:37:09.521Z,96450.06
2023-12-29T01:39:38.047Z,96445.41
2023-12-29T01:42:06.900Z,96444.38
2023-12-29T01:44:36.650Z,96445.31
2023-12-29T01:47:07.601Z,96445.47
2023-12-29T01:49:36.794Z,96448.78
2023-12-29T01:52:06.068Z,96449.34
2023-12-29T01:54:39.622Z,96449.66
2023-12-29T01:57:09.686Z,96438.44
2023-12-29T01:59:40.175Z,96441.84
2023-12-29T02:02:09.040Z,96441.06
2023-12-29T02:04:39.694Z,96437.44
2023-12-29T02:07:08.272Z,96416.56
2023-12-29T02:09:37.469Z,96423.69
2023-12-29T02:12:06.445Z,96421.38
2023-12-29T02:14:35.231Z,96414.66
2023-12-29T02:17:13.732Z,96415.16
2023-12-29T02:19:45.951Z,96420.34
2023-12-29T02:22:15.468Z,96414.66
2023-12-29T02:24:48.746Z,96415.00
2023-12-29T02:27:36.812Z,96406.06
2023-12-29T02:30:13.113Z,96395.31
2023-12-29T02:32:44.170Z,96396.34
2023-12-29T02:35:19.872Z,96399.38
2023-12-29T02:37:49.640Z,96393.44
2023-12-29T02:40:20.891Z,96389.06
2023-12-29T02:42:49.866Z,96392.78
2023-12-29T02:45:18.442Z,96383.94
2023-12-29T02:47:47.350Z,96390.50
2023-12-29T02:50:16.119Z,96398.88
2023-12-29T02:52:44.389Z,96384.78
2023-12-29T02:55:13.136Z,96387.47
2023-12-29T02:57:43.052Z,96393.78
2023-12-29T03:00:11.991Z,96389.63
2023-12-29T03:02:40.301Z,96377.13
2023-12-29T03:05:09.631Z,96369.06
2023-12-29T03:07:38.056Z,96375.91
2023-12-29T03:10:07.283Z,96374.09
2023-12-29T03:12:35.823Z,96376.78
2023-12-29T03:15:06.443Z,96372.66
2023-12-29T03:17:36.054Z,96383.25
2023-12-29T03:20:06.334Z,96369.06
2023-12-29T03:22:34.789Z,96362.50
2023-12-29T03:25:03.065Z,96368.47
2023-12-29T03:27:31.342Z,96364.94
2023-12-29T03:29:59.848Z,96371.06
2023-12-29T03:32:29.686Z,96354.81
2023-12-29T03:34:58.015Z,96347.34
2023-12-29T03:37:26.287Z,96342.63
2023-12-29T03:39:54.720Z,96338.69
2023-12-29T03:42:23.061Z,96348.00
2023-12-29T03:44:51.436Z,96360.25
2023-12-29T03:47:19.698Z,96349.50
2023-12-29T03:49:49.440Z,96353.94
2023-12-29T03:52:17.748Z,96362.78
2023-12-29T03:54:46.087Z,96372.91
2023-12-29T03:57:14.655Z,96376.78
2023-12-29T03:59:43.036Z,96367.38
2023-12-29T04:02:11.562Z,96359.56
2023-12-29T04:04:40.765Z,96359.00
2023-12-29T04:07:10.582Z,96341.22
2023-12-29T04:09:38.987Z,96337.59
2023-12-29T04:12:08.015Z,96347.56
2023-12-29T04:14:36.377Z,96352.28
2023-12-29T04:17:06.521Z,96345.34
2023-12-29T04:19:35.190Z,96342.00
2023-12-29T04:22:03.617Z,96332.13
2023-12-29T04:24:33.609Z,96346.25
2023-12-29T04:27:02.368Z,96347.84
2023-12-29T04:29:30.690Z,96348.94
2023-12-29T04:31:59.135Z,96352.09
2023-12-29T04:34:27.519Z,96339.63
2023-12-29T04:36:55.937Z,96332.84
2023-12-29T04:39:24.243Z,96339.22
2023-12-29T04:41:54.211Z,96327.94
2023-12-29T04:44:22.426Z,96326.84
2023-12-29T04:46:50.773Z,96336.56
2023-12-29T04:49:19.346Z,96337.34
2023-12-29T04:51:49.768Z,96347.22
2023-12-29T04:54:18.133Z,96342.00
2023-12-29T04:56:46.456Z,96327.41
2023-12-29T04:59:16.215Z,96333.63
2023-12-29T05:01:44.810Z,96339.63
2023-12-29T05:04:13.232Z,96342.31
2023-12-29T05:06:41.668Z,96346.25
2023-12-29T05:09:09.981Z,96354.94
2023-12-29T05:11:38.613Z,96363.09
2023-12-29T05:14:06.929Z,96340.56
2023-12-29T05:16:36.649Z,96363.41
2023-12-29T05:19:05.363Z,96362.53
2023-12-29T05:21:33.716Z,96369.09
2023-12-29T05:24:02.225Z,96369.66
2023-12-29T05:26:30.531Z,96363.19
2023-12-29T05:28:58.807Z,96355.91
2023-12-29T05:31:30.115Z,96353.84
2023-12-29T05:34:00.029Z,96352.81
2023-12-29T05:36:28.375Z,96345.78
2023-12-29T05:38:58.405Z,96355.41
2023-12-29T05:41:26.927Z,96356.22
2023-12-29T05:43:55.273Z,96364.75
2023-12-29T05:46:23.669Z,96369.34
2023-12-29T05:48:53.765Z,96365.13
2023-12-29T05:51:24.815Z,96362.31
2023-12-29T05:53:53.144Z,96353.72
2023-12-29T05:56:22.686Z,96361.03
2023-12-29T05:58:51.277Z,96370.34
2023-12-29T06:01:19.569Z,96382.84
2023-12-29T06:03:47.892Z,96382.28
2023-12-29T06:06:16.336Z,96383.63
2023-12-29T06:08:46.180Z,96380.00
2023-12-29T06:11:18.251Z,96387.03
2023-12-29T06:13:46.703Z,96379.91
2023-12-29T06:16:20.745Z,96391.38
2023-12-29T06:18:49.549Z,96382.28
2023-12-29T06:21:18.050Z,96392.72
2023-12-29T06:23:47.821Z,96384.19
2023-12-29T06:26:19.778Z,96384.41
2023-12-29T06:28:48.384Z,96390.09
2023-12-29T06:31:17.152Z,96387.97
2023-12-29T06:33:46.041Z,96388.53
2023-12-29T06:36:15.234Z,96382.84
2023-12-29T06:38:47.186Z,96375.00
2023-12-29T06:41:16.958Z,96388.16
2023-12-29T06:43:45.262Z,96383.00
2023-12-29T06:48:43.831Z,96384.59
2023-12-29T06:51:17.852Z,96383.25
2023-12-29T06:53:46.165Z,96389.50
2023-12-29T06:56:17.004Z,96389.25
2023-12-29T06:58:46.005Z,96386.09
2023-12-29T07:01:14.575Z,96382.38
2023-12-29T07:03:43.124Z,96390.03
2023-12-29T07:06:12.405Z,96398.31
2023-12-29T07:08:40.753Z,96393.81
2023-12-29T07:11:12.814Z,96395.56
2023-12-29T07:13:42.958Z,96398.41
2023-12-29T07:16:11.648Z,96401.25
2023-12-29T07:18:40.164Z,96410.09
2023-12-29T07:21:08.634Z,96408.84
2023-12-29T07:23:36.894Z,96422.88
2023-12-29T07:26:05.924Z,96418.38
2023-12-29T07:28:34.624Z,96403.16
2023-12-29T07:31:05.295Z,96412.38
2023-12-29T07:33:34.075Z,96417.38
2023-12-29T07:36:02.684Z,96419.38
2023-12-29T07:38:31.029Z,96419.53
2023-12-29T07:40:59.550Z,96430.16
2023-12-29T07:43:27.822Z,96432.91
2023-12-29T07:45:56.106Z,96434.25
2023-12-29T07:48:26.029Z,96429.84
2023-12-29T07:50:54.410Z,96439.88
2023-12-29T07:53:22.728Z,96447.47
2023-12-29T07:55:51.591Z,96442.03
2023-12-29T07:58:19.910Z,96444.63
2023-12-29T08:00:48.848Z,96445.88
2023-12-29T08:03:17.464Z,96441.03
2023-12-29T08:05:48.240Z,96445.22
2023-12-29T08:08:16.803Z,96453.69
2023-12-29T08:10:45.337Z,96446.22
2023-12-29T08:13:13.721Z,96454.44
2023-12-29T08:15:42.436Z,96460.06
2023-12-29T08:18:10.859Z,96467.72
2023-12-29T08:20:39.253Z,96472.78
2023-12-29T08:23:09.136Z,96474.34
2023-12-29T08:25:38.324Z,96469.47
2023-12-29T08:28:07.860Z,96477.38
2023-12-29T08:30:38.635Z,96481.31
2023-12-29T08:33:07.314Z,96476.91
2023-12-29T08:35:35.567Z,96486.53
2023-12-29T08:38:03.888Z,96479.19
2023-12-29T08:40:33.696Z,96477.13
2023-12-29T08:43:02.767Z,96477.69
2023-12-29T08:45:31.372Z,96473.41
2023-12-29T08:48:00.223Z,96477.03
2023-12-29T08:50:28.661Z,96477.69
2023-12-29T08:52:56.895Z,96476.66
2023-12-29T08:55:25.320Z,96477.53
2023-12-29T08:57:55.944Z,96478.88
2023-12-29T09:00:24.398Z,96476.28
2023-12-29T09:02:52.632Z,96480.22
2023-12-29T09:05:20.967Z,96476.44
2023-12-29T09:07:49.150Z,96482.78
2023-12-29T09:10:17.422Z,96489.88
2023-12-29T09:12:45.728Z,96494.94
2023-12-29T09:15:15.430Z,96495.84
2023-12-29T09:17:43.724Z,96489.84
2023-12-29T09:20:12.848Z,96490.38
2023-12-29T09:22:41.232Z,96479.50
2023-12-29T09:25:10.197Z,96485.81
2023-12-29T09:27:38.741Z,96485.72
2023-12-29T09:30:08.557Z,96498.09
2023-12-29T09:32:39.055Z,96487.69
2023-12-29T09:35:07.745Z,96498.91
2023-12-29T09:37:36.050Z,96489.97
2023-12-29T09:40:04.839Z,96496.75
2023-12-29T09:42:34.230Z,96497.41
2023-12-29T09:45:05.113Z,96497.97
2023-12-29T09:47:37.329Z,96511.09
2023-12-29T09:50:08.301Z,96512.69
2023-12-29T09:52:37.887Z,96514.56
2023-12-29T09:55:07.471Z,96512.03
2023-12-29T09:57:35.808Z,96512.13
2023-12-29T10:00:04.886Z,96507.47
2023-12-29T10:02:33.500Z,96500.03
2023-12-29T10:05:05.414Z,96507.47
2023-12-29T10:07:39.106Z,96508.56
2023-12-29T10:10:08.931Z,96513.28
2023-12-29T10:12:39.542Z,96504.06
2023-12-29T10:15:16.782Z,96502.25
2023-12-29T10:17:54.245Z,96496.03
2023-12-29T10:20:39.847Z,96494.28
2023-12-29T10:23:15.512Z,96485.75
2023-12-29T10:25:43.762Z,96485.28
2023-12-29T10:28:12.567Z,96483.69
2023-12-29T10:30:41.828Z,96491.44
2023-12-29T10:33:11.102Z,96479.97
2023-12-29T10:35:40.464Z,96482.66
2023-12-29T10:38:14.581Z,96486.13
2023-12-29T10:40:44.374Z,96489.78
2023-12-29T10:43:12.930Z,96497.91
2023-12-29T10:45:41.364Z,96487.59
2023-12-29T10:48:10.655Z,96480.94
2023-12-29T10:50:47.015Z,96466.38
2023-12-29T10:53:18.864Z,96472.19
2023-12-29T10:55:47.516Z,96470.19
2023-12-29T10:58:19.254Z,96460.31
2023-12-29T11:00:47.841Z,96452.22
2023-12-29T11:03:18.086Z,96453.06
2023-12-29T11:05:46.523Z,96441.09
2023-12-29T11:08:20.044Z,96432.53
2023-12-29T11:10:50.643Z,96430.47
2023-12-29T11:13:20.785Z,96430.75
2023-12-29T11:15:50.495Z,96424.53
2023-12-29T11:18:20.458Z,96423.53
2023-12-29T11:20:49.166Z,96421.47
2023-12-29T11:23:19.340Z,96414.66
2023-12-29T11:25:48.253Z,96410.66
2023-12-29T11:28:16.996Z,96407.00
2023-12-29T11:30:45.641Z,96414.59
2023-12-29T11:33:20.279Z,96402.84
2023-12-29T11:35:53.724Z,96399.97
2023-12-29T11:38:47.507Z,96390.38
2023-12-29T11:41:24.007Z,96382.03
2023-12-29T11:43:59.971Z,96381.81
2023-12-29T11:46:38.564Z,96380.84
2023-12-29T11:49:07.449Z,96383.00
2023-12-29T11:51:38.086Z,96376.28
2023-12-29T11:54:09.550Z,96367.44
2023-12-29T11:56:39.698Z,96356.22
2023-12-29T11:59:21.865Z,96357.28
2023-12-29T12:01:51.797Z,96353.66
2023-12-29T12:04:41.867Z,96350.88
2023-12-29T12:07:15.443Z,96358.50
2023-12-29T12:09:45.659Z,96357.44
2023-12-29T12:12:14.887Z,96350.66
2023-12-29T12:14:47.245Z,96339.94
2023-12-29T12:17:30.006Z,96338.63
2023-12-29T12:20:01.016Z,96336.84
2023-12-29T12:22:34.054Z,96330.31
2023-12-29T12:25:06.052Z,96329.28
2023-12-29T12:27:34.497Z,96323.28
2023-12-29T12:30:02.914Z,96322.53
2023-12-29T12:32:32.110Z,96326.47
2023-12-29T12:35:00.700Z,96327.28
2023-12-29T12:37:30.896Z,96320.47
2023-12-29T12:39:59.332Z,96319.19
2023-12-29T12:42:29.645Z,96318.16
2023-12-29T12:45:05.684Z,96315.56
2023-12-29T12:47:37.485Z,96312.97
2023-12-29T12:50:08.414Z,96306.41
2023-12-29T12:52:38.765Z,96319.28
2023-12-29T12:55:08.996Z,96310.91
2023-12-29T12:57:39.506Z,96298.34
2023-12-29T13:00:10.572Z,96293.38
2023-12-29T13:02:39.760Z,96289.69
2023-12-29T13:05:09.723Z,96291.28
2023-12-29T13:07:38.284Z,96294.41
2023-12-29T13:10:08.250Z,96288.91
2023-12-29T13:12:36.650Z,96296.00
2023-12-29T13:15:11.344Z,96283.69
2023-12-29T13:17:39.672Z,96278.97
2023-12-29T13:20:09.449Z,96278.72
2023-12-29T13:22:38.562Z,96272.69
2023-12-29T13:25:09.657Z,96280.53
2023-12-29T13:27:41.371Z,96279.47
2023-12-29T13:30:13.688Z,96278.44
2023-12-29T13:32:43.023Z,96282.13
2023-12-29T13:35:19.212Z,96277.91
2023-12-29T13:37:54.183Z,96271.09
2023-12-29T13:40:28.956Z,96264.03
2023-12-29T13:43:02.426Z,96255.38
2023-12-29T13:45:33.569Z,96259.56
2023-12-29T13:48:04.342Z,96263.75
2023-12-29T13:50:32.879Z,96254.34
2023-12-29T13:53:01.043Z,96248.03
2023-12-29T13:55:29.990Z,96246.47
2023-12-29T13:57:58.449Z,96251.44
2023-12-29T14:00:30.257Z,96251.94
2023-12-29T14:03:08.524Z,96243.81
2023-12-29T14:05:41.906Z,96245.91
2023-12-29T14:08:20.002Z,96251.41
2023-12-29T14:10:49.127Z,96245.91
2023-12-29T14:13:19.216Z,96250.88
2023-12-29T14:15:53.101Z,96255.34
2023-12-29T14:18:48.126Z,96254.28
2023-12-29T14:21:26.738Z,96255.84
2023-12-29T14:24:11.908Z,96249.03
2023-12-29T14:26:41.748Z,96252.19
2023-12-29T14:29:11.479Z,96243.78
2023-12-29T14:31:41.822Z,96239.31
2023-12-29T14:34:13.106Z,96251.09
2023-12-29T14:36:42.860Z,96253.22
2023-12-29T14:39:12.659Z,96253.22
2023-12-29T14:41:41.723Z,96242.44
2023-12-29T14:44:10.246Z,96248.47
2023-12-29T14:46:39.201Z,96248.47
2023-12-29T14:49:09.052Z,96234.88
2023-12-29T14:51:39.129Z,96238.53
2023-12-29T14:54:08.116Z,96240.38
2023-12-29T14:56:36.476Z,96232.00
2023-12-29T14:59:07.104Z,96228.03
2023-12-29T15:01:36.010Z,96227.25
2023-12-29T15:04:05.556Z,96225.44
2023-12-29T15:06:33.999Z,96229.13
2023-12-29T15:09:04.421Z,96217.31
2023-12-29T15:11:32.685Z,96217.59
2023-12-29T15:14:00.911Z,96209.19
2023-12-29T15:16:29.268Z,96205.00
2023-12-29T15:18:57.789Z,96198.47
2023-12-29T15:21:26.452Z,96202.38
2023-12-29T15:23:55.273Z,96204.50
2023-12-29T15:26:25.060Z,96210.25
2023-12-29T15:28:53.567Z,96209.19
2023-12-29T15:31:21.966Z,96212.59
2023-12-29T15:33:50.418Z,96219.16
2023-12-29T15:36:21.958Z,96220.72
2023-12-29T15:38:50.398Z,96220.72
2023-12-29T15:41:18.618Z,96222.56
2023-12-29T15:43:48.123Z,96217.06
2023-12-29T15:46:16.768Z,96221.78
2023-12-29T15:48:45.556Z,96220.22
2023-12-29T15:51:15.027Z,96225.47
2023-12-29T15:53:43.186Z,96232.81
2023-12-29T15:56:19.664Z,96231.78
2023-12-29T15:58:49.687Z,96227.31
2023-12-29T16:01:26.918Z,96223.91
2023-12-29T16:03:55.417Z,96220.22
2023-12-29T16:06:24.656Z,96221.28
2023-12-29T16:08:55.540Z,96229.66
2023-12-29T16:11:25.197Z,96225.22
2023-12-29T16:13:55.756Z,96229.69
2023-12-29T16:16:28.587Z,96230.72
2023-12-29T16:18:56.788Z,96237.03
2023-12-29T16:21:25.115Z,96235.47
2023-12-29T16:23:53.391Z,96238.09
2023-12-29T16:26:28.041Z,96239.13
2023-12-29T16:29:05.713Z,96243.59
2023-12-29T16:31:35.015Z,96239.66
2023-12-29T16:34:03.401Z,96234.16
2023-12-29T16:36:32.365Z,96240.72
2023-12-29T16:39:00.610Z,96239.66
2023-12-29T16:41:28.807Z,96237.81
2023-12-29T16:43:57.818Z,96239.66
2023-12-29T16:46:27.510Z,96237.03
2023-12-29T16:48:55.838Z,96237.03
2023-12-29T16:51:24.174Z,96245.41
2023-12-29T16:53:52.409Z,96241.22
2023-12-29T16:56:20.678Z,96241.22
2023-12-29T16:58:48.970Z,96243.59
2023-12-29T17:01:19.052Z,96243.06
2023-12-29T17:03:49.097Z,96236.03
2023-12-29T17:06:17.443Z,96238.13
2023-12-29T17:08:45.711Z,96231.31
2023-12-29T17:11:14.045Z,96240.22
2023-12-29T17:13:42.364Z,96243.59
2023-12-29T17:16:12.868Z,96249.63
2023-12-29T17:18:41.715Z,96242.31
2023-12-29T17:21:12.836Z,96246.50
2023-12-29T17:23:41.035Z,96252.78
2023-12-29T17:26:15.577Z,96247.81
2023-12-29T17:28:43.896Z,96250.94
2023-12-29T17:31:12.964Z,96249.63
2023-12-29T17:33:41.923Z,96252.78
2023-12-29T17:36:12.126Z,96254.88
2023-12-29T17:38:43.038Z,96259.06
2023-12-29T17:41:12.368Z,96255.38
2023-12-29T17:43:40.598Z,96267.97
2023-12-29T17:46:09.947Z,96264.81
2023-12-29T17:48:38.315Z,96262.44
2023-12-29T17:51:08.595Z,96249.63
2023-12-29T17:53:38.697Z,96255.91
2023-12-29T17:56:08.562Z,96264.00
2023-12-29T17:58:38.369Z,96257.94
2023-12-29T18:01:06.827Z,96256.88
2023-12-29T18:03:35.254Z,96265.22
2023-12-29T18:06:07.447Z,96261.53
2023-12-29T18:08:35.746Z,96262.84
2023-12-29T18:11:07.283Z,96259.69
2023-12-29T18:13:36.545Z,96257.84
2023-12-29T18:16:10.641Z,96266.47
2023-12-29T18:18:40.223Z,96264.09
2023-12-29T18:21:09.787Z,96265.66
2023-12-29T18:23:37.914Z,96279.78
2023-12-29T18:26:07.635Z,96274.06
2023-12-29T18:28:39.186Z,96277.97
2023-12-29T18:31:07.590Z,96278.47
2023-12-29T18:33:37.783Z,96284.78
2023-12-29T18:36:07.149Z,96282.41
2023-12-29T18:38:35.724Z,96274.06
2023-12-29T18:41:08.847Z,96274.06
2023-12-29T18:43:37.562Z,96262.28
2023-12-29T18:46:06.673Z,96270.88
2023-12-29T18:48:35.201Z,96269.53
2023-12-29T18:51:04.377Z,96275.53
2023-12-29T18:53:32.753Z,96273.41
2023-12-29T18:56:00.949Z,96278.59
2023-12-29T18:58:30.704Z,96274.91
2023-12-29T19:01:04.278Z,96274.91
2023-12-29T19:03:33.700Z,96281.22
2023-12-29T19:06:01.875Z,96277.84
2023-12-29T19:08:30.234Z,96272.16
2023-12-29T19:10:58.807Z,96279.22
2023-12-29T19:13:27.196Z,96281.84
2023-12-29T19:16:03.758Z,96275.34
2023-12-29T19:18:32.136Z,96274.03
2023-12-29T19:21:00.629Z,96288.94
2023-12-29T19:23:29.669Z,96280.53
2023-12-29T19:25:57.920Z,96274.97
2023-12-29T19:28:27.259Z,96275.97
2023-12-29T19:30:55.579Z,96276.50
2023-12-29T19:33:25.517Z,96286.66
2023-12-29T19:35:55.350Z,96281.44
2023-12-29T19:38:24.302Z,96291.09
2023-12-29T19:40:54.303Z,96287.47
2023-12-29T19:43:23.406Z,96304.31
2023-12-29T19:45:51.677Z,96305.91
2023-12-29T19:48:19.986Z,96305.94
2023-12-29T19:50:49.676Z,96301.22
2023-12-29T19:53:20.700Z,96301.75
2023-12-29T19:55:50.709Z,96305.94
2023-12-29T19:58:18.991Z,96304.88
2023-12-29T20:00:47.534Z,96304.88
2023-12-29T20:03:15.856Z,96293.34
2023-12-29T20:05:44.640Z,96305.09
2023-12-29T20:08:14.538Z,96296.94
2023-12-29T20:10:42.707Z,96289.03
2023-12-29T20:13:11.619Z,96281.16
2023-12-29T20:15:40.088Z,96280.09
2023-12-29T20:18:08.433Z,96275.63
2023-12-29T20:20:36.767Z,96275.06
2023-12-29T20:23:05.394Z,96270.88
2023-12-29T20:25:35.057Z,96270.63
2023-12-29T20:28:03.919Z,96276.16
2023-12-29T20:30:32.332Z,96279.59
2023-12-29T20:33:01.761Z,96282.97
2023-12-29T20:35:30.154Z,96287.16
2023-12-29T20:37:58.269Z,96287.44
2023-12-29T20:40:28.026Z,96294.00
2023-12-29T20:42:57.868Z,96292.69
2023-12-29T20:45:26.072Z,96293.69
2023-12-29T20:47:54.898Z,96294.44
2023-12-29T20:50:23.257Z,96298.34
2023-12-29T20:52:51.417Z,96308.22
2023-12-29T20:55:19.650Z,96312.88
2023-12-29T20:57:47.894Z,96309.50
2023-12-29T21:00:18.571Z,96316.00
2023-12-29T21:02:47.061Z,96329.56
2023-12-29T21:05:18.042Z,96323.75
2023-12-29T21:07:47.874Z,96321.09
2023-12-29T21:10:16.349Z,96320.81
2023-12-29T21:12:44.609Z,96317.47
2023-12-29T21:15:13.180Z,96313.31
2023-12-29T21:17:43.021Z,96307.59
2023-12-29T21:20:14.755Z,96312.81
2023-12-29T21:22:44.570Z,96315.38
2023-12-29T21:25:13.080Z,96309.13
2023-12-29T21:27:41.813Z,96311.22
2023-12-29T21:30:12.730Z,96305.50
2023-12-29T21:32:43.398Z,96299.53
2023-12-29T21:35:11.817Z,96307.13
2023-12-29T21:37:40.458Z,96306.59
2023-12-29T21:40:10.063Z,96305.22
2023-12-29T21:42:39.243Z,96312.78
2023-12-29T21:45:11.254Z,96313.28
2023-12-29T21:47:42.511Z,96313.22
2023-12-29T21:50:13.029Z,96303.81
2023-12-29T21:52:41.557Z,96321.59
2023-12-29T21:55:09.960Z,96322.09
2023-12-29T21:57:38.309Z,96333.06
2023-12-29T22:00:08.310Z,96329.44
2023-12-29T22:02:36.521Z,96329.44
2023-12-29T22:05:05.290Z,96334.06
2023-12-29T22:07:36.758Z,96329.34
2023-12-29T22:10:06.634Z,96328.50
2023-12-29T22:12:34.868Z,96324.03
2023-12-29T22:15:03.152Z,96328.69
2023-12-29T22:17:31.314Z,96334.47
2023-12-29T22:19:59.809Z,96332.41
2023-12-29T22:22:28.134Z,96336.09
2023-12-29T22:24:57.874Z,96332.19
2023-12-29T22:27:27.107Z,96337.16
2023-12-29T22:29:55.390Z,96351.81
2023-12-29T22:32:23.788Z,96347.56
2023-12-29T22:34:51.997Z,96341.25
2023-12-29T22:37:20.298Z,96351.59
2023-12-29T22:39:48.560Z,96344.22
2023-12-29T22:42:18.219Z,96350.66
2023-12-29T22:44:46.382Z,96349.22
2023-12-29T22:47:14.576Z,96359.91
2023-12-29T22:49:42.794Z,96349.69
2023-12-29T22:52:10.996Z,96353.34
2023-12-29T22:54:39.131Z,96351.47
2023-12-29T22:57:07.371Z,96352.75
2023-12-29T22:59:38.567Z,96348.00
2023-12-29T23:02:07.171Z,96343.75
2023-12-29T23:04:35.596Z,96335.88
2023-12-29T23:07:04.677Z,96329.38
2023-12-29T23:09:36.097Z,96329.09
2023-12-29T23:12:05.185Z,96325.34
2023-12-29T23:14:33.860Z,96326.78
2023-12-29T23:17:07.957Z,96328.25
2023-12-29T23:19:37.091Z,96325.47
2023-12-29T23:22:05.572Z,96328.56
2023-12-29T23:24:33.769Z,96329.66
2023-12-29T23:27:02.169Z,96336.69
2023-12-29T23:29:30.328Z,96336.94
2023-12-29T23:31:58.433Z,96342.25
2023-12-29T23:34:28.355Z,96340.25
2023-12-29T23:36:56.759Z,96332.25
2023-12-29T23:39:24.965Z,96331.53
2023-12-29T23:41:53.279Z,96319.59
2023-12-29T23:44:21.611Z,96337.34
2023-12-29T23:46:49.736Z,96337.84
2023-12-29T23:49:18.052Z,96344.56
2023-12-29T23:51:47.879Z,96335.97
2023-12-29T23:54:16.476Z,96337.28
2023-12-29T23:56:44.819Z,96330.00
2023-12-29T23:59:12.971Z,96316.50
